Time,TemperatureF,DewpointF,PressureIn,WindDirection,WindDirectionDegrees,WindSpeedMPH,WindSpeedGustMPH,Humidity,HourlyPrecipIn,Conditions,Clouds,dailyrainin,SoftwareType,DateUTC
2013-01-26 00:00:00,37.0,36.9,29.43,West,270,0.0,1.0,99,0.00,,,0.00,meteohub,2013-01-26 08:00:00,
2013-01-26 00:06:00,36.7,36.5,29.43,West,270,0.0,0.0,99,0.00,,,0.00,meteohub,2013-01-26 08:06:00,
2013-01-26 00:11:00,36.7,36.5,29.43,West,270,0.0,0.0,99,0.00,,,0.00,meteohub,2013-01-26 08:11:00,
2013-01-26 00:16:00,36.3,36.1,29.43,West,270,0.0,0.0,99,0.00,,,0.00,meteohub,2013-01-26 08:16:00,
2013-01-26 00:21:00,36.1,36.0,29.42,West,270,0.0,0.0,99,0.00,,,0.00,meteohub,2013-01-26 08:21:00,
2013-01-26 00:26:00,36.3,36.1,29.42,West,270,0.0,0.0,99,0.00,,,0.00,meteohub,2013-01-26 08:26:00,
2013-01-26 00:31:00,37.0,36.9,29.42,NE,45,0.0,0.0,99,0.00,,,0.00,meteohub,2013-01-26 08:31:00,
2013-01-26 00:36:00,37.6,37.4,29.42,NE,45,0.0,1.0,99,0.00,,,0.00,meteohub,2013-01-26 08:36:00,
2013-01-26 00:41:00,37.8,37.6,29.42,NE,45,0.0,1.0,99,0.00,,,0.00,meteohub,2013-01-26 08:41:00,
2013-01-26 00:46:00,37.9,37.8,29.42,North,0,0.0,0.0,99,0.00,,,0.00,meteohub,2013-01-26 08:46:00,
2013-01-26 00:51:00,37.2,37.0,29.42,NW,315,2.0,2.0,99,0.00,,,0.00,meteohub,2013-01-26 08:51:00,
2013-01-26 00:56:00,37.0,36.9,29.42,West,270,0.0,2.0,99,0.00,,,0.00,meteohub,2013-01-26 08:56:00,
2013-01-26 01:01:00,37.0,36.9,29.42,West,270,0.0,2.0,99,0.00,,,0.00,meteohub,2013-01-26 09:01:00,
2013-01-26 01:06:00,37.0,36.9,29.42,West,270,0.0,2.0,99,0.00,,,0.00,meteohub,2013-01-26 09:06:00,
2013-01-26 01:11:00,37.2,37.0,29.41,West,270,0.0,0.0,99,0.00,,,0.00,meteohub,2013-01-26 09:11:00,
2013-01-26 01:16:00,37.6,37.4,29.41,East,90,0.0,0.0,99,0.00,,,0.00,meteohub,2013-01-26 09:16:00,
2013-01-26 01:21:00,38.1,37.9,29.42,SW,225,1.0,1.0,99,0.00,,,0.00,meteohub,2013-01-26 09:21:00,
2013-01-26 01:26:00,38.3,38.1,29.42,SW,225,0.0,2.0,99,0.00,,,0.00,meteohub,2013-01-26 09:26:00,
2013-01-26 01:31:00,38.7,38.5,29.42,SW,225,2.0,2.0,99,0.00,,,0.00,meteohub,2013-01-26 09:31:00,
2013-01-26 01:36:00,38.8,38.7,29.42,SW,225,4.0,4.0,99,0.00,,,0.00,meteohub,2013-01-26 09:36:00,
2013-01-26 01:41:00,38.8,38.7,29.42,West,270,4.0,4.0,99,0.01,,,0.01,meteohub,2013-01-26 09:41:00,
2013-01-26 01:46:00,38.7,38.5,29.42,SW,225,4.0,4.0,99,0.01,,,0.01,meteohub,2013-01-26 09:46:00,
2013-01-26 01:52:00,38.7,38.5,29.42,West,270,4.0,4.0,99,0.01,,,0.01,meteohub,2013-01-26 09:52:00,
2013-01-26 01:57:00,38.7,38.5,29.43,West,270,4.0,5.0,99,0.01,,,0.01,meteohub,2013-01-26 09:57:00,
2013-01-26 02:02:00,38.7,38.5,29.42,West,270,3.0,5.0,99,0.01,,,0.01,meteohub,2013-01-26 10:02:00,
2013-01-26 02:07:00,38.7,38.5,29.41,SW,225,0.0,5.0,99,0.01,,,0.01,meteohub,2013-01-26 10:07:00,
2013-01-26 02:12:00,38.5,38.3,29.42,SW,225,0.0,5.0,99,0.01,,,0.01,meteohub,2013-01-26 10:12:00,
2013-01-26 02:17:00,38.5,38.3,29.42,SW,225,1.0,4.0,99,0.01,,,0.01,meteohub,2013-01-26 10:17:00,
2013-01-26 02:22:00,38.5,38.3,29.42,West,270,0.0,1.0,99,0.01,,,0.01,meteohub,2013-01-26 10:22:00,
2013-01-26 02:27:00,38.5,38.3,29.42,West,270,0.0,1.0,99,0.01,,,0.01,meteohub,2013-01-26 10:27:00,
2013-01-26 02:32:00,38.3,38.1,29.42,West,270,0.0,1.0,99,0.01,,,0.01,meteohub,2013-01-26 10:32:00,
2013-01-26 02:37:00,38.3,38.1,29.41,West,270,0.0,1.0,99,0.01,,,0.01,meteohub,2013-01-26 10:37:00,
2013-01-26 02:42:00,38.3,38.1,29.41,West,270,0.0,0.0,99,0.00,,,0.01,meteohub,2013-01-26 10:42:00,
2013-01-26 02:47:00,38.3,38.1,29.41,West,270,0.0,0.0,99,0.00,,,0.01,meteohub,2013-01-26 10:47:00,
2013-01-26 02:52:00,38.3,38.1,29.41,West,270,0.0,0.0,99,0.00,,,0.01,meteohub,2013-01-26 10:52:00,
2013-01-26 02:57:00,38.3,38.1,29.41,West,270,2.0,0.0,99,0.00,,,0.01,meteohub,2013-01-26 10:57:00,
2013-01-26 03:02:00,38.1,37.9,29.41,SW,225,0.0,2.0,99,0.00,,,0.01,meteohub,2013-01-26 11:02:00,
2013-01-26 03:07:00,38.1,37.9,29.41,SW,225,2.0,2.0,99,0.00,,,0.01,meteohub,2013-01-26 11:07:00,
2013-01-26 03:12:00,38.1,37.9,29.41,SW,225,2.0,2.0,99,0.00,,,0.01,meteohub,2013-01-26 11:12:00,
2013-01-26 03:17:00,38.3,38.1,29.41,South,180,2.0,2.0,99,0.00,,,0.01,meteohub,2013-01-26 11:17:00,
2013-01-26 03:23:00,38.5,38.3,29.41,South,180,2.0,3.0,99,0.00,,,0.01,meteohub,2013-01-26 11:23:00,
2013-01-26 03:28:00,38.7,38.5,29.41,SW,225,2.0,4.0,99,0.00,,,0.01,meteohub,2013-01-26 11:28:00,
2013-01-26 03:33:00,38.8,38.7,29.41,SW,225,2.0,4.0,99,0.00,,,0.01,meteohub,2013-01-26 11:33:00,
2013-01-26 03:38:00,38.8,38.7,29.42,West,270,3.0,4.0,99,0.00,,,0.01,meteohub,2013-01-26 11:38:00,
2013-01-26 03:43:00,38.8,38.7,29.42,SW,225,3.0,6.0,99,0.00,,,0.01,meteohub,2013-01-26 11:43:00,
2013-01-26 03:48:00,38.8,38.7,29.41,West,270,2.0,6.0,99,0.00,,,0.01,meteohub,2013-01-26 11:48:00,
2013-01-26 03:53:00,38.8,38.7,29.41,SW,225,2.0,6.0,99,0.00,,,0.01,meteohub,2013-01-26 11:53:00,
2013-01-26 03:58:00,38.8,38.7,29.41,SW,225,2.0,6.0,99,0.00,,,0.01,meteohub,2013-01-26 11:58:00,
2013-01-26 04:03:00,38.8,38.7,29.41,South,180,3.0,5.0,99,0.00,,,0.01,meteohub,2013-01-26 12:03:00,
2013-01-26 04:08:00,38.8,38.7,29.41,SW,225,5.0,5.0,99,0.00,,,0.01,meteohub,2013-01-26 12:08:00,
2013-01-26 04:13:00,38.8,38.7,29.41,SW,225,4.0,4.0,99,0.00,,,0.01,meteohub,2013-01-26 12:13:00,
2013-01-26 04:18:00,38.8,38.7,29.41,SW,225,3.0,5.0,99,0.00,,,0.01,meteohub,2013-01-26 12:18:00,
2013-01-26 04:23:00,38.8,38.7,29.41,SW,225,4.0,5.0,99,0.00,,,0.01,meteohub,2013-01-26 12:23:00,
2013-01-26 04:28:00,38.8,38.7,29.41,SW,225,4.0,4.0,99,0.01,,,0.02,meteohub,2013-01-26 12:28:00,
2013-01-26 04:33:00,38.8,38.7,29.41,South,180,2.0,4.0,99,0.01,,,0.02,meteohub,2013-01-26 12:33:00,
2013-01-26 04:38:00,38.7,38.5,29.41,SW,225,1.0,4.0,99,0.01,,,0.02,meteohub,2013-01-26 12:38:00,
2013-01-26 04:43:00,38.7,38.5,29.41,South,180,2.0,4.0,99,0.01,,,0.02,meteohub,2013-01-26 12:43:00,
2013-01-26 04:49:00,38.5,38.3,29.41,South,180,2.0,2.0,99,0.01,,,0.02,meteohub,2013-01-26 12:49:00,
2013-01-26 04:54:00,38.5,38.3,29.41,SW,225,2.0,2.0,99,0.01,,,0.02,meteohub,2013-01-26 12:54:00,
2013-01-26 04:59:00,38.1,37.9,29.42,SW,225,2.0,2.0,99,0.01,,,0.02,meteohub,2013-01-26 12:59:00,
2013-01-26 05:04:00,38.1,37.9,29.41,SW,225,2.0,2.0,99,0.01,,,0.02,meteohub,2013-01-26 13:04:00,
2013-01-26 05:09:00,38.1,37.9,29.41,West,270,4.0,4.0,99,0.01,,,0.02,meteohub,2013-01-26 13:09:00,
2013-01-26 05:14:00,38.3,38.1,29.41,West,270,2.0,3.0,99,0.01,,,0.02,meteohub,2013-01-26 13:14:00,
2013-01-26 05:19:00,38.5,38.3,29.42,West,270,3.0,4.0,99,0.01,,,0.02,meteohub,2013-01-26 13:19:00,
2013-01-26 05:24:00,38.5,38.3,29.41,SW,225,0.0,4.0,99,0.01,,,0.02,meteohub,2013-01-26 13:24:00,
2013-01-26 05:30:00,38.3,38.1,29.41,SW,225,0.0,4.0,99,0.00,,,0.02,meteohub,2013-01-26 13:30:00,
2013-01-26 05:35:00,38.3,38.1,29.41,SW,225,0.0,4.0,99,0.00,,,0.02,meteohub,2013-01-26 13:35:00,
2013-01-26 05:40:00,38.3,38.1,29.41,SW,225,0.0,2.0,99,0.00,,,0.02,meteohub,2013-01-26 13:40:00,
2013-01-26 05:45:00,38.1,37.9,29.42,SW,225,0.0,0.0,99,0.00,,,0.02,meteohub,2013-01-26 13:45:00,
2013-01-26 05:50:00,37.9,37.8,29.42,SW,225,2.0,0.0,99,0.00,,,0.02,meteohub,2013-01-26 13:50:00,
2013-01-26 05:55:00,37.6,37.4,29.42,SW,225,3.0,3.0,99,0.00,,,0.02,meteohub,2013-01-26 13:55:00,
2013-01-26 06:00:00,37.6,37.4,29.41,SW,225,4.0,4.0,99,0.00,,,0.02,meteohub,2013-01-26 14:00:00,
2013-01-26 06:05:00,37.6,37.4,29.42,West,270,2.0,4.0,99,0.00,,,0.02,meteohub,2013-01-26 14:05:00,
2013-01-26 06:10:00,37.6,37.4,29.42,SW,225,2.0,4.0,99,0.00,,,0.02,meteohub,2013-01-26 14:10:00,
2013-01-26 06:15:00,37.6,37.4,29.42,West,270,2.0,4.0,99,0.00,,,0.02,meteohub,2013-01-26 14:15:00,
2013-01-26 06:20:00,37.6,37.4,29.41,West,270,3.0,3.0,99,0.00,,,0.02,meteohub,2013-01-26 14:20:00,
2013-01-26 06:25:00,37.4,37.2,29.42,West,270,2.0,3.0,99,0.00,,,0.02,meteohub,2013-01-26 14:25:00,
2013-01-26 06:30:00,37.0,36.9,29.42,West,270,3.0,3.0,99,0.00,,,0.02,meteohub,2013-01-26 14:30:00,
2013-01-26 06:35:00,37.2,37.0,29.42,SW,225,0.0,4.0,99,0.00,,,0.02,meteohub,2013-01-26 14:35:00,
2013-01-26 06:40:00,37.0,36.9,29.42,NW,315,3.0,4.0,99,0.00,,,0.02,meteohub,2013-01-26 14:40:00,
2013-01-26 06:45:00,37.4,37.2,29.42,West,270,2.0,4.0,99,0.00,,,0.02,meteohub,2013-01-26 14:45:00,
2013-01-26 06:50:00,37.4,37.2,29.42,West,270,2.0,4.0,99,0.00,,,0.02,meteohub,2013-01-26 14:50:00,
2013-01-26 06:56:00,37.4,37.2,29.42,SW,225,3.0,4.0,99,0.00,,,0.02,meteohub,2013-01-26 14:56:00,
2013-01-26 07:01:00,37.0,36.9,29.42,SW,225,0.0,3.0,99,0.00,,,0.02,meteohub,2013-01-26 15:01:00,
2013-01-26 07:06:00,36.9,36.7,29.42,West,270,0.0,3.0,99,0.00,,,0.02,meteohub,2013-01-26 15:06:00,
2013-01-26 07:11:00,36.9,36.7,29.42,West,270,0.0,3.0,99,0.00,,,0.02,meteohub,2013-01-26 15:11:00,
2013-01-26 07:16:00,36.9,36.7,29.42,SW,225,1.0,0.0,99,0.00,,,0.02,meteohub,2013-01-26 15:16:00,
2013-01-26 07:21:00,36.7,36.5,29.42,SW,225,0.0,2.0,99,0.00,,,0.02,meteohub,2013-01-26 15:21:00,
2013-01-26 07:26:00,36.5,36.3,29.42,SW,225,0.0,2.0,99,0.00,,,0.02,meteohub,2013-01-26 15:26:00,
2013-01-26 07:31:00,36.5,36.3,29.43,SW,225,0.0,1.0,99,0.00,,,0.02,meteohub,2013-01-26 15:31:00,
2013-01-26 07:36:00,36.5,36.3,29.43,SW,225,0.0,0.0,99,0.00,,,0.02,meteohub,2013-01-26 15:36:00,
2013-01-26 07:44:00,36.1,36.0,29.42,West,270,0.0,0.0,99,0.00,,,0.02,meteohub,2013-01-26 15:44:00,
2013-01-26 07:49:00,36.0,35.8,29.42,North,0,2.0,0.0,99,0.00,,,0.02,meteohub,2013-01-26 15:49:00,
2013-01-26 07:54:00,36.1,36.0,29.42,North,0,1.0,2.0,99,0.00,,,0.02,meteohub,2013-01-26 15:54:00,
2013-01-26 07:59:00,36.5,36.3,29.43,South,180,1.0,2.0,99,0.00,,,0.02,meteohub,2013-01-26 15:59:00,
2013-01-26 08:04:00,36.9,36.7,29.43,West,270,3.0,3.0,99,0.00,,,0.02,meteohub,2013-01-26 16:04:00,
2013-01-26 08:09:00,38.3,38.1,29.44,West,270,0.0,3.0,99,0.00,,,0.02,meteohub,2013-01-26 16:09:00,
2013-01-26 08:14:00,39.0,38.8,29.43,West,270,0.0,3.0,99,0.00,,,0.02,meteohub,2013-01-26 16:14:00,
2013-01-26 08:19:00,39.7,39.6,29.44,West,270,0.0,3.0,99,0.00,,,0.02,meteohub,2013-01-26 16:19:00,
2013-01-26 08:24:00,39.7,39.6,29.43,SW,225,2.0,2.0,99,0.00,,,0.02,meteohub,2013-01-26 16:24:00,
2013-01-26 08:29:00,39.2,39.0,29.44,SW,225,0.0,2.0,99,0.00,,,0.02,meteohub,2013-01-26 16:29:00,
2013-01-26 08:34:00,39.0,38.8,29.44,SW,225,1.0,2.0,99,0.00,,,0.02,meteohub,2013-01-26 16:34:00,
2013-01-26 08:39:00,38.7,38.5,29.44,SW,225,2.0,2.0,99,0.00,,,0.02,meteohub,2013-01-26 16:39:00,
2013-01-26 08:44:00,38.5,38.3,29.44,West,270,3.0,3.0,99,0.00,,,0.02,meteohub,2013-01-26 16:44:00,
2013-01-26 08:49:00,38.3,38.1,29.44,West,270,1.0,3.0,99,0.00,,,0.02,meteohub,2013-01-26 16:49:00,
2013-01-26 08:55:00,38.3,38.1,29.44,SW,225,2.0,3.0,99,0.00,,,0.02,meteohub,2013-01-26 16:55:00,
2013-01-26 09:00:00,38.3,38.1,29.44,SW,225,2.0,3.0,99,0.01,,,0.04,meteohub,2013-01-26 17:00:00,
2013-01-26 09:05:00,38.5,38.3,29.44,SW,225,2.0,3.0,99,0.01,,,0.04,meteohub,2013-01-26 17:05:00,
2013-01-26 09:10:00,38.7,38.5,29.44,SW,225,2.0,3.0,99,0.01,,,0.04,meteohub,2013-01-26 17:10:00,
2013-01-26 09:15:00,38.7,38.5,29.44,West,270,2.0,3.0,99,0.01,,,0.04,meteohub,2013-01-26 17:15:00,
2013-01-26 09:20:00,39.0,38.8,29.44,West,270,2.0,2.0,99,0.01,,,0.04,meteohub,2013-01-26 17:20:00,
2013-01-26 09:25:00,39.2,39.0,29.45,South,180,1.0,3.0,99,0.01,,,0.04,meteohub,2013-01-26 17:25:00,
2013-01-26 09:30:00,39.7,39.6,29.44,West,270,0.0,3.0,99,0.01,,,0.04,meteohub,2013-01-26 17:30:00,
2013-01-26 09:35:00,40.5,40.3,29.45,South,180,1.0,3.0,99,0.02,,,0.05,meteohub,2013-01-26 17:35:00,
2013-01-26 09:40:00,41.0,40.8,29.45,East,90,2.0,3.0,99,0.02,,,0.05,meteohub,2013-01-26 17:40:00,
2013-01-26 09:45:00,42.8,42.6,29.44,East,90,4.0,4.0,99,0.02,,,0.05,meteohub,2013-01-26 17:45:00,
2013-01-26 09:50:00,43.2,43.0,29.44,East,90,3.0,4.0,99,0.01,,,0.05,meteohub,2013-01-26 17:50:00,
2013-01-26 09:55:00,43.0,42.8,29.45,SW,225,4.0,4.0,99,0.01,,,0.05,meteohub,2013-01-26 17:55:00,
2013-01-26 10:00:00,44.2,43.7,29.45,South,180,3.0,4.0,98,0.01,,,0.05,meteohub,2013-01-26 18:00:00,
2013-01-26 10:05:00,45.1,44.4,29.45,NE,45,4.0,4.0,97,0.01,,,0.05,meteohub,2013-01-26 18:05:00,
2013-01-26 10:11:00,46.6,45.0,29.45,SW,225,2.0,5.0,94,0.01,,,0.05,meteohub,2013-01-26 18:11:00,
2013-01-26 10:16:00,48.6,45.5,29.45,South,180,4.0,5.0,89,0.01,,,0.05,meteohub,2013-01-26 18:16:00,
2013-01-26 10:21:00,47.3,43.7,29.46,NW,315,2.0,7.0,87,0.01,,,0.05,meteohub,2013-01-26 18:21:00,
2013-01-26 10:26:00,45.7,42.3,29.46,South,180,4.0,7.0,88,0.01,,,0.05,meteohub,2013-01-26 18:26:00,
2013-01-26 10:31:00,44.4,41.7,29.46,SW,225,5.0,7.0,90,0.01,,,0.05,meteohub,2013-01-26 18:31:00,
2013-01-26 10:36:00,43.5,41.4,29.46,SW,225,4.0,5.0,92,0.00,,,0.05,meteohub,2013-01-26 18:36:00,
2013-01-26 10:41:00,43.3,41.7,29.46,South,180,4.0,5.0,94,0.01,,,0.06,meteohub,2013-01-26 18:41:00,
2013-01-26 10:46:00,43.2,41.9,29.46,South,180,2.0,5.0,95,0.01,,,0.06,meteohub,2013-01-26 18:46:00,
2013-01-26 10:51:00,43.3,42.1,29.46,SE,135,2.0,4.0,95,0.01,,,0.06,meteohub,2013-01-26 18:51:00,
2013-01-26 10:56:00,43.2,42.1,29.46,South,180,2.0,4.0,96,0.01,,,0.06,meteohub,2013-01-26 18:56:00,
2013-01-26 11:01:00,43.0,41.9,29.46,SW,225,0.0,4.0,96,0.01,,,0.06,meteohub,2013-01-26 19:01:00,
2013-01-26 11:06:00,42.8,41.7,29.45,East,90,2.0,4.0,96,0.02,,,0.07,meteohub,2013-01-26 19:06:00,
2013-01-26 11:11:00,42.4,41.4,29.46,SW,225,2.0,4.0,96,0.02,,,0.07,meteohub,2013-01-26 19:11:00,
2013-01-26 11:16:00,42.1,41.4,29.46,SW,225,2.0,3.0,97,0.02,,,0.07,meteohub,2013-01-26 19:16:00,
2013-01-26 11:21:00,41.9,41.2,29.46,SW,225,4.0,4.0,97,0.02,,,0.07,meteohub,2013-01-26 19:21:00,
2013-01-26 11:27:00,41.9,40.8,29.46,SW,225,4.0,4.0,96,0.04,,,0.08,meteohub,2013-01-26 19:27:00,
2013-01-26 11:32:00,42.3,41.5,29.45,West,270,3.0,7.0,97,0.04,,,0.08,meteohub,2013-01-26 19:32:00,
2013-01-26 11:37:00,44.2,43.0,29.45,South,180,3.0,7.0,95,0.04,,,0.08,meteohub,2013-01-26 19:37:00,
2013-01-26 11:42:00,45.7,43.2,29.45,West,270,3.0,5.0,91,0.02,,,0.08,meteohub,2013-01-26 19:42:00,
2013-01-26 11:47:00,46.9,43.0,29.44,NW,315,2.0,4.0,86,0.04,,,0.09,meteohub,2013-01-26 19:47:00,
2013-01-26 11:52:00,48.9,45.1,29.44,West,270,2.0,4.0,87,0.04,,,0.09,meteohub,2013-01-26 19:52:00,
2013-01-26 11:57:00,48.9,43.3,29.44,SSW,203,3.0,4.0,81,0.04,,,0.09,meteohub,2013-01-26 19:57:00,
2013-01-26 12:02:00,48.4,43.5,29.45,North,0,2.0,4.0,83,0.02,,,0.09,meteohub,2013-01-26 20:02:00,
2013-01-26 12:07:00,47.1,42.6,29.45,SW,225,0.0,4.0,84,0.02,,,0.09,meteohub,2013-01-26 20:07:00,
2013-01-26 12:12:00,48.2,44.2,29.44,East,90,2.0,3.0,86,0.02,,,0.09,meteohub,2013-01-26 20:12:00,
2013-01-26 12:17:00,49.3,43.7,29.45,SW,225,2.0,3.0,81,0.02,,,0.09,meteohub,2013-01-26 20:17:00,
2013-01-26 12:22:00,48.4,43.2,29.45,SE,135,2.0,2.0,82,0.01,,,0.09,meteohub,2013-01-26 20:22:00,
2013-01-26 12:27:00,47.3,42.4,29.44,SW,225,2.0,3.0,83,0.01,,,0.09,meteohub,2013-01-26 20:27:00,
2013-01-26 12:32:00,46.9,41.7,29.44,South,180,3.0,3.0,82,0.01,,,0.09,meteohub,2013-01-26 20:32:00,
2013-01-26 12:37:00,46.4,41.9,29.44,NE,45,2.0,4.0,84,0.01,,,0.09,meteohub,2013-01-26 20:37:00,
2013-01-26 12:42:00,46.0,42.1,29.44,East,90,4.0,4.0,86,0.01,,,0.09,meteohub,2013-01-26 20:42:00,
2013-01-26 12:47:00,48.0,43.3,29.44,South,180,7.0,7.0,84,0.00,,,0.09,meteohub,2013-01-26 20:47:00,
2013-01-26 12:52:00,49.1,44.4,29.43,East,90,2.0,7.0,84,0.00,,,0.09,meteohub,2013-01-26 20:52:00,
2013-01-26 12:57:00,49.1,43.9,29.44,SW,225,4.0,8.0,82,0.00,,,0.09,meteohub,2013-01-26 20:57:00,
2013-01-26 13:02:00,50.9,44.6,29.43,South,180,5.0,8.0,79,0.00,,,0.09,meteohub,2013-01-26 21:02:00,
2013-01-26 13:07:00,52.2,44.4,29.43,NE,45,4.0,8.0,75,0.00,,,0.09,meteohub,2013-01-26 21:07:00,
2013-01-26 13:12:00,54.0,44.8,29.43,South,180,4.0,8.0,71,0.00,,,0.09,meteohub,2013-01-26 21:12:00,
2013-01-26 13:17:00,52.3,43.5,29.43,SW,225,4.0,5.0,72,0.00,,,0.09,meteohub,2013-01-26 21:17:00,
2013-01-26 13:22:00,50.0,42.4,29.43,East,90,4.0,4.0,75,0.00,,,0.09,meteohub,2013-01-26 21:22:00,
2013-01-26 13:27:00,47.8,41.9,29.43,West,270,6.0,6.0,80,0.00,,,0.09,meteohub,2013-01-26 21:27:00,
2013-01-26 13:32:00,45.1,40.8,29.43,West,270,3.0,9.0,85,0.00,,,0.09,meteohub,2013-01-26 21:32:00,
2013-01-26 13:37:00,44.1,40.5,29.43,West,270,4.0,9.0,87,0.01,,,0.11,meteohub,2013-01-26 21:37:00,
2013-01-26 13:42:00,43.0,39.9,29.43,West,270,1.0,9.0,89,0.02,,,0.12,meteohub,2013-01-26 21:42:00,
2013-01-26 13:47:00,42.3,39.6,29.43,West,270,4.0,7.0,90,0.06,,,0.15,meteohub,2013-01-26 21:47:00,
2013-01-26 13:52:00,41.5,39.7,29.43,SW,225,3.0,4.0,93,0.07,,,0.17,meteohub,2013-01-26 21:52:00,
2013-01-26 13:57:00,41.4,39.7,29.44,South,180,2.0,4.0,94,0.07,,,0.17,meteohub,2013-01-26 21:57:00,
2013-01-26 14:02:00,41.7,40.5,29.44,South,180,0.0,4.0,95,0.08,,,0.18,meteohub,2013-01-26 22:02:00,
2013-01-26 14:07:00,42.4,40.8,29.43,SW,225,4.0,4.0,94,0.09,,,0.18,meteohub,2013-01-26 22:07:00,
2013-01-26 14:12:00,43.0,40.8,29.43,SW,225,4.0,4.0,92,0.09,,,0.19,meteohub,2013-01-26 22:12:00,
2013-01-26 14:17:00,43.3,41.2,29.43,SW,225,2.0,4.0,92,0.09,,,0.19,meteohub,2013-01-26 22:17:00,
2013-01-26 14:22:00,44.4,42.3,29.43,NW,315,2.0,4.0,92,0.09,,,0.19,meteohub,2013-01-26 22:22:00,
2013-01-26 14:27:00,44.2,41.7,29.43,SW,225,2.0,4.0,91,0.09,,,0.19,meteohub,2013-01-26 22:27:00,
2013-01-26 14:32:00,43.5,41.4,29.43,SW,225,2.0,4.0,92,0.09,,,0.19,meteohub,2013-01-26 22:32:00,
2013-01-26 14:37:00,43.0,40.8,29.43,West,270,1.0,3.0,92,0.08,,,0.19,meteohub,2013-01-26 22:37:00,
2013-01-26 14:42:00,43.0,41.4,29.43,SW,225,2.0,3.0,94,0.05,,,0.19,meteohub,2013-01-26 22:42:00,
2013-01-26 14:47:00,43.2,41.9,29.43,South,180,2.0,4.0,95,0.04,,,0.19,meteohub,2013-01-26 22:47:00,
2013-01-26 14:52:00,43.3,42.1,29.43,SW,225,2.0,4.0,95,0.02,,,0.19,meteohub,2013-01-26 22:52:00,
2013-01-26 14:57:00,43.2,41.5,29.43,South,180,1.0,3.0,94,0.01,,,0.19,meteohub,2013-01-26 22:57:00,
2013-01-26 15:02:00,43.2,41.5,29.44,SW,225,2.0,2.0,94,0.01,,,0.19,meteohub,2013-01-26 23:02:00,
2013-01-26 15:07:00,43.7,42.1,29.43,South,180,0.0,2.0,94,0.00,,,0.19,meteohub,2013-01-26 23:07:00,
2013-01-26 15:12:00,43.7,42.1,29.44,South,180,0.0,2.0,94,0.00,,,0.19,meteohub,2013-01-26 23:12:00,
2013-01-26 15:17:00,44.4,42.4,29.44,East,90,0.0,2.0,93,0.00,,,0.19,meteohub,2013-01-26 23:17:00,
2013-01-26 15:22:00,45.7,43.7,29.44,East,90,0.0,2.0,93,0.00,,,0.19,meteohub,2013-01-26 23:22:00,
2013-01-26 15:27:00,45.9,43.9,29.44,South,180,2.0,2.0,93,0.00,,,0.19,meteohub,2013-01-26 23:27:00,
2013-01-26 15:32:00,44.4,41.7,29.44,SW,225,2.0,2.0,90,0.00,,,0.19,meteohub,2013-01-26 23:32:00,
2013-01-26 15:37:00,43.9,41.4,29.44,West,270,0.0,3.0,91,0.00,,,0.19,meteohub,2013-01-26 23:37:00,
2013-01-26 15:42:00,43.5,41.4,29.44,SW,225,0.0,3.0,92,0.00,,,0.19,meteohub,2013-01-26 23:42:00,
2013-01-26 15:47:00,43.3,41.5,29.44,SW,225,0.0,2.0,93,0.00,,,0.19,meteohub,2013-01-26 23:47:00,
2013-01-26 15:52:00,43.2,41.4,29.44,West,270,2.0,0.0,93,0.00,,,0.19,meteohub,2013-01-26 23:52:00,
2013-01-26 15:57:00,42.1,40.3,29.45,SW,225,15.0,15.0,93,0.01,,,0.19,meteohub,2013-01-26 23:57:00,
2013-01-26 16:02:00,40.8,39.2,29.44,West,270,4.0,15.0,94,0.02,,,0.21,meteohub,2013-01-27 00:02:00,
2013-01-26 16:07:00,40.3,39.0,29.44,SW,225,2.0,15.0,95,0.05,,,0.02,meteohub,2013-01-27 00:07:00,
2013-01-26 16:12:00,40.6,39.6,29.44,West,270,1.0,15.0,96,0.06,,,0.02,meteohub,2013-01-27 00:12:00,
2013-01-26 16:17:00,40.8,39.7,29.44,SW,225,0.0,8.0,96,0.06,,,0.04,meteohub,2013-01-27 00:17:00,
2013-01-26 16:22:00,40.6,39.6,29.44,West,270,2.0,4.0,96,0.06,,,0.04,meteohub,2013-01-27 00:22:00,
2013-01-26 16:27:00,40.3,39.2,29.44,West,270,1.0,4.0,96,0.06,,,0.04,meteohub,2013-01-27 00:27:00,
2013-01-26 16:32:00,39.9,38.8,29.44,SW,225,2.0,2.0,96,0.06,,,0.04,meteohub,2013-01-27 00:32:00,
2013-01-26 16:37:00,39.7,39.0,29.45,South,180,2.0,2.0,97,0.06,,,0.04,meteohub,2013-01-27 00:37:00,
2013-01-26 16:42:00,39.7,39.2,29.45,SW,225,6.0,6.0,98,0.06,,,0.04,meteohub,2013-01-27 00:42:00,
2013-01-26 16:47:00,39.7,39.2,29.45,SW,225,5.0,7.0,98,0.06,,,0.04,meteohub,2013-01-27 00:47:00,
2013-01-26 16:52:00,39.7,39.0,29.45,SW,225,2.0,7.0,97,0.07,,,0.05,meteohub,2013-01-27 00:52:00,
2013-01-26 16:57:00,39.6,38.8,29.45,South,180,2.0,7.0,97,0.06,,,0.05,meteohub,2013-01-27 00:57:00,
2013-01-26 17:02:00,39.6,38.8,29.45,South,180,2.0,6.0,97,0.04,,,0.05,meteohub,2013-01-27 01:02:00,
2013-01-26 17:07:00,39.6,39.0,29.45,SW,225,2.0,5.0,98,0.02,,,0.05,meteohub,2013-01-27 01:07:00,
2013-01-26 17:12:00,39.4,38.8,29.46,SW,225,2.0,4.0,98,0.01,,,0.05,meteohub,2013-01-27 01:12:00,
2013-01-26 17:17:00,39.2,39.0,29.46,SW,225,0.0,2.0,99,0.01,,,0.05,meteohub,2013-01-27 01:17:00,
2013-01-26 17:22:00,39.0,38.8,29.46,SW,225,2.0,2.0,99,0.01,,,0.05,meteohub,2013-01-27 01:22:00,
2013-01-26 17:27:00,38.7,38.5,29.46,SW,225,2.0,2.0,99,0.01,,,0.05,meteohub,2013-01-27 01:27:00,
2013-01-26 17:32:00,38.5,38.3,29.46,SW,225,4.0,4.0,99,0.01,,,0.05,meteohub,2013-01-27 01:32:00,
2013-01-26 17:37:00,38.5,38.3,29.47,SW,225,4.0,4.0,99,0.01,,,0.05,meteohub,2013-01-27 01:37:00,
2013-01-26 17:42:00,38.5,38.3,29.47,West,270,3.0,4.0,99,0.01,,,0.05,meteohub,2013-01-27 01:42:00,
2013-01-26 17:47:00,38.3,38.1,29.47,SW,225,4.0,4.0,99,0.01,,,0.05,meteohub,2013-01-27 01:47:00,
2013-01-26 17:52:00,38.3,38.1,29.47,SW,225,4.0,4.0,99,0.00,,,0.05,meteohub,2013-01-27 01:52:00,
2013-01-26 17:57:00,37.9,37.8,29.47,SW,225,3.0,4.0,99,0.00,,,0.05,meteohub,2013-01-27 01:57:00,
2013-01-26 18:02:00,37.8,37.6,29.47,SW,225,2.0,4.0,99,0.00,,,0.05,meteohub,2013-01-27 02:02:00,
2013-01-26 18:07:00,37.8,37.6,29.47,SW,225,3.0,4.0,99,0.00,,,0.05,meteohub,2013-01-27 02:07:00,
2013-01-26 18:12:00,37.8,37.6,29.47,West,270,2.0,4.0,99,0.00,,,0.05,meteohub,2013-01-27 02:12:00,
2013-01-26 18:17:00,37.8,37.6,29.47,West,270,2.0,4.0,99,0.00,,,0.05,meteohub,2013-01-27 02:17:00,
2013-01-26 18:22:00,37.8,37.6,29.48,West,270,2.0,4.0,99,0.00,,,0.05,meteohub,2013-01-27 02:22:00,
2013-01-26 18:27:00,37.8,37.6,29.48,SW,225,2.0,4.0,99,0.00,,,0.05,meteohub,2013-01-27 02:27:00,
2013-01-26 18:32:00,37.9,37.8,29.48,SW,225,0.0,4.0,99,0.00,,,0.05,meteohub,2013-01-27 02:32:00,
2013-01-26 18:37:00,37.8,37.6,29.48,SW,225,0.0,2.0,99,0.00,,,0.05,meteohub,2013-01-27 02:37:00,
2013-01-26 18:42:00,37.6,37.4,29.48,SW,225,0.0,2.0,99,0.00,,,0.05,meteohub,2013-01-27 02:42:00,
2013-01-26 18:47:00,37.6,37.4,29.48,SW,225,0.0,0.0,99,0.00,,,0.05,meteohub,2013-01-27 02:47:00,
2013-01-26 18:52:00,37.4,37.2,29.49,SW,225,0.0,0.0,99,0.00,,,0.05,meteohub,2013-01-27 02:52:00,
2013-01-26 18:57:00,37.2,37.0,29.49,SW,225,0.0,0.0,99,0.00,,,0.05,meteohub,2013-01-27 02:57:00,
2013-01-26 19:02:00,37.4,37.2,29.49,NE,45,2.0,0.0,99,0.00,,,0.05,meteohub,2013-01-27 03:02:00,
2013-01-26 19:07:00,37.4,37.2,29.49,NE,45,0.0,2.0,99,0.00,,,0.05,meteohub,2013-01-27 03:07:00,
2013-01-26 19:12:00,37.4,37.2,29.49,NE,45,0.0,2.0,99,0.00,,,0.05,meteohub,2013-01-27 03:12:00,
2013-01-26 19:17:00,37.4,37.2,29.49,NE,45,1.0,2.0,99,0.00,,,0.05,meteohub,2013-01-27 03:17:00,
2013-01-26 19:22:00,37.6,37.4,29.49,SW,225,3.0,3.0,99,0.00,,,0.05,meteohub,2013-01-27 03:22:00,
2013-01-26 19:27:00,37.6,37.4,29.49,West,270,0.0,3.0,99,0.00,,,0.05,meteohub,2013-01-27 03:27:00,
2013-01-26 19:32:00,37.4,37.2,29.50,West,270,2.0,3.0,99,0.00,,,0.05,meteohub,2013-01-27 03:32:00,
2013-01-26 19:37:00,37.4,37.2,29.50,SW,225,1.0,3.0,99,0.00,,,0.05,meteohub,2013-01-27 03:37:00,
2013-01-26 19:42:00,37.2,37.0,29.49,SW,225,1.0,2.0,99,0.00,,,0.05,meteohub,2013-01-27 03:42:00,
2013-01-26 19:47:00,37.0,36.9,29.50,SW,225,0.0,2.0,99,0.00,,,0.05,meteohub,2013-01-27 03:47:00,
2013-01-26 19:52:00,36.5,36.3,29.50,West,270,1.0,2.0,99,0.00,,,0.05,meteohub,2013-01-27 03:52:00,
2013-01-26 19:57:00,36.1,36.0,29.50,West,270,1.0,2.0,99,0.00,,,0.05,meteohub,2013-01-27 03:57:00,
2013-01-26 20:02:00,36.3,36.1,29.50,West,270,0.0,2.0,99,0.00,,,0.05,meteohub,2013-01-27 04:02:00,
2013-01-26 20:07:00,36.3,36.1,29.50,West,270,0.0,2.0,99,0.00,,,0.05,meteohub,2013-01-27 04:07:00,
2013-01-26 20:12:00,36.5,36.3,29.50,West,270,0.0,1.0,99,0.00,,,0.05,meteohub,2013-01-27 04:12:00,
2013-01-26 20:17:00,36.5,36.3,29.50,West,270,0.0,0.0,99,0.00,,,0.05,meteohub,2013-01-27 04:17:00,
2013-01-26 20:22:00,36.3,36.1,29.51,West,270,0.0,0.0,99,0.00,,,0.05,meteohub,2013-01-27 04:22:00,
2013-01-26 20:27:00,36.5,36.3,29.51,West,270,0.0,1.0,99,0.00,,,0.05,meteohub,2013-01-27 04:27:00,
2013-01-26 20:32:00,36.7,36.5,29.51,West,270,1.0,1.0,99,0.00,,,0.05,meteohub,2013-01-27 04:32:00,
2013-01-26 20:37:00,36.7,36.5,29.51,West,270,0.0,2.0,99,0.00,,,0.05,meteohub,2013-01-27 04:37:00,
2013-01-26 20:42:00,36.7,36.5,29.51,West,270,2.0,2.0,99,0.00,,,0.05,meteohub,2013-01-27 04:42:00,
2013-01-26 20:47:00,36.9,36.7,29.51,West,270,0.0,2.0,99,0.00,,,0.05,meteohub,2013-01-27 04:47:00,
2013-01-26 20:52:00,36.9,36.7,29.51,West,270,1.0,2.0,99,0.00,,,0.05,meteohub,2013-01-27 04:52:00,
2013-01-26 20:57:00,37.0,36.9,29.52,West,270,0.0,2.0,99,0.00,,,0.05,meteohub,2013-01-27 04:57:00,
2013-01-26 21:00:00,37.2,37.0,29.51,West,270,0.0,2.0,99,0.00,,,0.05,meteohub,2013-01-27 05:00:00,
2013-01-26 21:01:00,37.0,36.9,29.51,West,270,0.0,1.0,99,0.00,,,0.05,meteohub,2013-01-27 05:01:00,
2013-01-26 21:02:00,37.0,36.9,29.51,West,270,0.0,1.0,99,0.00,,,0.05,meteohub,2013-01-27 05:02:00,
2013-01-26 21:03:00,37.0,36.9,29.51,West,270,0.0,1.0,99,0.00,,,0.05,meteohub,2013-01-27 05:03:00,
2013-01-26 21:08:00,36.9,36.7,29.51,West,270,0.0,1.0,99,0.00,,,0.05,meteohub,2013-01-27 05:08:00,
2013-01-26 21:14:00,36.9,36.7,29.51,West,270,0.0,0.0,99,0.00,,,0.05,meteohub,2013-01-27 05:14:00,
2013-01-26 21:19:00,36.9,36.7,29.52,West,270,0.0,0.0,99,0.00,,,0.05,meteohub,2013-01-27 05:19:00,
2013-01-26 21:24:00,36.7,36.5,29.52,West,270,0.0,0.0,99,0.00,,,0.05,meteohub,2013-01-27 05:24:00,
2013-01-26 21:29:00,36.3,36.1,29.52,West,270,0.0,0.0,99,0.00,,,0.05,meteohub,2013-01-27 05:29:00,
2013-01-26 21:34:00,36.1,36.0,29.52,West,270,3.0,0.0,99,0.00,,,0.05,meteohub,2013-01-27 05:34:00,
2013-01-26 21:39:00,36.1,36.0,29.52,West,270,2.0,2.0,99,0.00,,,0.05,meteohub,2013-01-27 05:39:00,
2013-01-26 21:44:00,36.3,36.1,29.52,West,270,2.0,3.0,99,0.00,,,0.05,meteohub,2013-01-27 05:44:00,
2013-01-26 21:49:00,36.5,36.3,29.53,West,270,3.0,3.0,99,0.00,,,0.05,meteohub,2013-01-27 05:49:00,
2013-01-26 21:54:00,36.7,36.5,29.53,West,270,0.0,3.0,99,0.00,,,0.05,meteohub,2013-01-27 05:54:00,
2013-01-26 21:59:00,36.5,36.3,29.52,West,270,1.0,3.0,99,0.00,,,0.05,meteohub,2013-01-27 05:59:00,
2013-01-26 22:04:00,36.7,36.5,29.53,West,270,1.0,3.0,99,0.00,,,0.05,meteohub,2013-01-27 06:04:00,
2013-01-26 22:10:00,36.9,36.7,29.53,East,90,2.0,2.0,99,0.00,,,0.05,meteohub,2013-01-27 06:10:00,
2013-01-26 22:15:00,36.9,36.7,29.53,East,90,0.0,2.0,99,0.00,,,0.05,meteohub,2013-01-27 06:15:00,
2013-01-26 22:20:00,36.9,36.7,29.53,East,90,0.0,2.0,99,0.00,,,0.05,meteohub,2013-01-27 06:20:00,
2013-01-26 22:25:00,37.0,36.9,29.54,SW,225,2.0,2.0,99,0.00,,,0.05,meteohub,2013-01-27 06:25:00,
2013-01-26 22:30:00,37.0,36.9,29.54,SW,225,1.0,1.0,99,0.00,,,0.05,meteohub,2013-01-27 06:30:00,
2013-01-26 22:35:00,37.0,36.9,29.54,SW,225,0.0,2.0,99,0.00,,,0.05,meteohub,2013-01-27 06:35:00,
2013-01-26 22:40:00,36.7,36.5,29.54,SW,225,0.0,2.0,99,0.00,,,0.05,meteohub,2013-01-27 06:40:00,
2013-01-26 22:45:00,36.3,36.1,29.54,SW,225,0.0,2.0,99,0.00,,,0.05,meteohub,2013-01-27 06:45:00,
2013-01-26 22:50:00,36.1,36.0,29.54,SW,225,0.0,0.0,99,0.00,,,0.05,meteohub,2013-01-27 06:50:00,
2013-01-26 22:55:00,36.3,36.1,29.54,SW,225,0.0,0.0,99,0.00,,,0.05,meteohub,2013-01-27 06:55:00,
2013-01-26 23:00:00,36.5,36.3,29.54,SW,225,0.0,0.0,99,0.00,,,0.05,meteohub,2013-01-27 07:00:00,
2013-01-26 23:05:00,36.7,36.5,29.54,SW,225,0.0,0.0,99,0.00,,,0.05,meteohub,2013-01-27 07:05:00,
2013-01-26 23:13:00,36.5,36.3,29.54,SW,225,0.0,0.0,99,0.00,,,0.05,meteohub,2013-01-27 07:13:00,
2013-01-26 23:18:00,36.5,36.3,29.55,SW,225,0.0,0.0,99,0.00,,,0.05,meteohub,2013-01-27 07:18:00,
2013-01-26 23:23:00,36.5,36.3,29.55,SW,225,0.0,0.0,99,0.00,,,0.05,meteohub,2013-01-27 07:23:00,
2013-01-26 23:28:00,36.5,36.3,29.55,SW,225,0.0,0.0,99,0.00,,,0.05,meteohub,2013-01-27 07:28:00,
2013-01-26 23:33:00,36.3,36.1,29.55,SW,225,0.0,0.0,99,0.00,,,0.05,meteohub,2013-01-27 07:33:00,
2013-01-26 23:38:00,36.3,36.1,29.55,SW,225,0.0,0.0,99,0.00,,,0.05,meteohub,2013-01-27 07:38:00,
2013-01-26 23:43:00,36.3,36.1,29.55,SW,225,0.0,0.0,99,0.00,,,0.05,meteohub,2013-01-27 07:43:00,
2013-01-26 23:48:00,36.1,36.0,29.56,West,270,2.0,0.0,99,0.00,,,0.05,meteohub,2013-01-27 07:48:00,
2013-01-26 23:53:00,36.0,35.8,29.55,SW,225,3.0,3.0,99,0.00,,,0.05,meteohub,2013-01-27 07:53:00,
2013-01-26 23:59:00,35.6,35.4,29.55,West,270,2.0,4.0,99,0.00,,,0.05,meteohub,2013-01-27 07:59:00,